Time;durP1;ratioP1;P1;durP2;ratioP2;P2;SDS_P1;SDS_P2;PMS_P1;PMS_P2;Temp;Humidity;BMP_temperature;BMP_pressure;BME280_temperature;BME280_humidity;BME280_pressure;Samples;Min_cycle;Max_cycle;Signal;HPM_P1;HPM_P2
2022/04/16 00:00:33;;;;;;;0.10;0.05;;;;;;;;;;4180711;28;20053;-36
2022/04/16 00:02:34;;;;;;;0.52;0.17;;;;;;;;;;4181069;28;20060;-32
2022/04/16 00:04:36;;;;;;;0.10;0.10;;;;;;;;;;4180605;28;20052;-33
2022/04/16 00:06:37;;;;;;;0.25;0.10;;;;;;;;;;4180724;28;20115;-31
2022/04/16 00:08:38;;;;;;;0.30;0.10;;;;;;;;;;4180084;28;20053;-33
2022/04/16 00:10:39;;;;;;;0.30;0.10;;;;;;;;;;4180728;28;20060;-34
2022/04/16 00:12:40;;;;;;;0.20;0.10;;;;;;;;;;4181127;28;20049;-34
2022/04/16 00:14:42;;;;;;;0.10;0.10;;;;;;;;;;4180566;28;20053;-32
2022/04/16 00:16:46;;;;;;;0.10;0.10;;;;;;;;;;4179264;28;20052;-36
2022/04/16 00:18:48;;;;;;;0.35;0.10;;;;;;;;;;4180313;28;20390;-33
2022/04/16 00:20:49;;;;;;;0.32;0.10;;;;;;;;;;4180569;28;20053;-35
2022/04/16 00:22:51;;;;;;;0.20;0.10;;;;;;;;;;4180329;28;20060;-33
2022/04/16 00:24:52;;;;;;;0.20;0.10;;;;;;;;;;4180180;28;20114;-32
2022/04/16 00:26:54;;;;;;;0.13;0.10;;;;;;;;;;4180461;28;20107;-33
2022/04/16 00:28:55;;;;;;;0.10;0.10;;;;;;;;;;4180254;28;20447;-37
2022/04/16 00:30:56;;;;;;;0.43;0.20;;;;;;;;;;4180403;28;20053;-36
2022/04/16 00:32:58;;;;;;;0.50;0.25;;;;;;;;;;4180487;28;20049;-32
2022/04/16 00:35:02;;;;;;;0.10;0.10;;;;;;;;;;4180568;28;20056;-34
2022/04/16 00:37:03;;;;;;;0.10;0.10;;;;;;;;;;4180190;28;20049;-33
2022/04/16 00:39:04;;;;;;;0.20;0.10;;;;;;;;;;4179339;28;20386;-33
2022/04/16 00:41:05;;;;;;;0.10;0.10;;;;;;;;;;4180502;28;20114;-34
2022/04/16 00:43:07;;;;;;;0.68;0.20;;;;;;;;;;4180120;28;20116;-36
2022/04/16 00:45:08;;;;;;;0.20;0.10;;;;;;;;;;4180206;28;20390;-33
2022/04/16 00:47:09;;;;;;;0.30;0.10;;;;;;;;;;4180111;28;20574;-35
2022/04/16 00:49:10;;;;;;;0.20;0.10;;;;;;;;;;4179847;28;20095;-32
2022/04/16 00:51:13;;;;;;;0.10;0.10;;;;;;;;;;4179989;28;20072;-36
2022/04/16 00:53:14;;;;;;;0.38;0.20;;;;;;;;;;4179581;28;20057;-33
2022/04/16 00:55:15;;;;;;;0.50;0.20;;;;;;;;;;4180240;28;20114;-35
2022/04/16 00:57:17;;;;;;;0.73;0.20;;;;;;;;;;4178672;28;20056;-34
2022/04/16 00:59:18;;;;;;;0.10;0.10;;;;;;;;;;4179937;28;20053;-33
2022/04/16 01:01:20;;;;;;;0.10;0.10;;;;;;;;;;4180015;28;20057;-35
2022/04/16 01:03:21;;;;;;;0.00;0.00;;;;;;;;;;4179857;28;20053;-35
2022/04/16 01:05:23;;;;;;;0.17;0.10;;;;;;;;;;4178694;28;20626;-34
2022/04/16 01:07:24;;;;;;;0.15;0.13;;;;;;;;;;4179743;28;20118;-33
2022/04/16 01:09:26;;;;;;;0.00;0.00;;;;;;;;;;4177982;28;20048;-34
2022/04/16 01:11:27;;;;;;;0.00;0.00;;;;;;;;;;4180064;28;20114;-32
2022/04/16 01:13:29;;;;;;;0.38;0.15;;;;;;;;;;4179799;28;20053;-35
2022/04/16 01:15:30;;;;;;;0.10;0.10;;;;;;;;;;4179773;28;20052;-35
2022/04/16 01:17:32;;;;;;;0.20;0.20;;;;;;;;;;4178498;28;20057;-34
2022/04/16 01:19:37;;;;;;;0.10;0.10;;;;;;;;;;4179706;28;20451;-35
2022/04/16 01:21:39;;;;;;;0.10;0.10;;;;;;;;;;4179578;28;20049;-33
2022/04/16 01:23:40;;;;;;;0.00;0.00;;;;;;;;;;4178071;28;20053;-35
2022/04/16 01:25:42;;;;;;;0.20;0.15;;;;;;;;;;4179694;28;20072;-34
2022/04/16 01:27:45;;;;;;;1.10;0.03;;;;;;;;;;4179570;28;20102;-34
2022/04/16 01:29:48;;;;;;;0.22;0.20;;;;;;;;;;4179531;28;20390;-34
2022/04/16 01:31:48;;;;;;;0.10;0.10;;;;;;;;;;4179788;28;20048;-35
2022/04/16 01:33:50;;;;;;;0.20;0.10;;;;;;;;;;4179682;28;20053;-32
2022/04/16 01:35:53;;;;;;;0.13;0.10;;;;;;;;;;4179527;28;20065;-32
2022/04/16 01:37:54;;;;;;;0.20;0.10;;;;;;;;;;4179749;28;20102;-35
2022/04/16 01:39:56;;;;;;;0.22;0.13;;;;;;;;;;4179052;28;20103;-35
2022/04/16 01:41:58;;;;;;;0.10;0.10;;;;;;;;;;4179768;28;20095;-33
2022/04/16 01:43:59;;;;;;;0.30;0.10;;;;;;;;;;4161596;28;20406;-33
2022/04/16 01:46:04;;;;;;;0.10;0.10;;;;;;;;;;4179791;28;20107;-35
2022/04/16 01:48:06;;;;;;;0.40;0.10;;;;;;;;;;4179450;28;20107;-32
2022/04/16 01:50:09;;;;;;;0.43;0.15;;;;;;;;;;4180431;28;20057;-33
2022/04/16 01:52:10;;;;;;;0.40;0.17;;;;;;;;;;4182973;28;20550;-31
2022/04/16 01:54:12;;;;;;;0.10;0.10;;;;;;;;;;4182446;28;20099;-32
2022/04/16 01:56:13;;;;;;;0.20;0.10;;;;;;;;;;4182963;28;20381;-34
2022/04/16 01:58:14;;;;;;;0.30;0.20;;;;;;;;;;4181644;28;20049;-33
2022/04/16 02:00:16;;;;;;;0.10;0.00;;;;;;;;;;4182538;28;20056;-33
2022/04/16 02:02:19;;;;;;;1.58;0.20;;;;;;;;;;4182853;28;20053;-32
2022/04/16 02:04:21;;;;;;;0.10;0.10;;;;;;;;;;4182430;28;20102;-33
2022/04/16 02:06:22;;;;;;;0.17;0.17;;;;;;;;;;4182629;28;20544;-33
2022/04/16 02:08:23;;;;;;;0.38;0.10;;;;;;;;;;4182269;28;20049;-31
2022/04/16 02:10:24;;;;;;;0.15;0.10;;;;;;;;;;4182533;28;20110;-34
2022/04/16 02:12:26;;;;;;;0.25;0.10;;;;;;;;;;4182611;28;20098;-31
2022/04/16 02:14:28;;;;;;;0.60;0.10;;;;;;;;;;4182301;28;20098;-34
2022/04/16 02:16:29;;;;;;;0.17;0.15;;;;;;;;;;4182560;28;20060;-34
2022/04/16 02:18:30;;;;;;;0.17;0.05;;;;;;;;;;4182274;28;20429;-32
2022/04/16 02:20:31;;;;;;;0.90;0.20;;;;;;;;;;4182454;28;20061;-31
2022/04/16 02:22:46;;;;;;;0.10;0.10;;;;;;;;;;4182304;28;20110;-31
2022/04/16 02:24:48;;;;;;;0.00;0.00;;;;;;;;;;4181919;28;20436;-33
2022/04/16 02:26:49;;;;;;;0.17;0.10;;;;;;;;;;4182403;28;20063;-33
2022/04/16 02:28:50;;;;;;;0.17;0.00;;;;;;;;;;4182387;28;20053;-33
2022/04/16 02:30:51;;;;;;;0.10;0.10;;;;;;;;;;4182276;28;20111;-31
2022/04/16 02:32:52;;;;;;;0.17;0.10;;;;;;;;;;4182289;28;20106;-35
2022/04/16 02:34:56;;;;;;;0.32;0.20;;;;;;;;;;4182215;28;20059;-31
2022/04/16 02:36:58;;;;;;;0.75;0.10;;;;;;;;;;4182485;28;20045;-33
2022/04/16 02:39:00;;;;;;;0.05;0.05;;;;;;;;;;4181630;28;20075;-35
2022/04/16 02:41:01;;;;;;;0.00;0.00;;;;;;;;;;4182155;28;20117;-33
2022/04/16 02:43:02;;;;;;;0.10;0.10;;;;;;;;;;4182076;28;20110;-34
2022/04/16 02:47:24;;;;;;;0.25;0.17;;;;;;;;;;4182287;28;20057;-32
2022/04/16 02:49:25;;;;;;;0.50;0.30;;;;;;;;;;4181798;28;20480;-35
2022/04/16 02:51:27;;;;;;;0.10;0.10;;;;;;;;;;4182298;28;20064;-31
2022/04/16 02:53:31;;;;;;;0.73;0.10;;;;;;;;;;4181370;28;20478;-34
2022/04/16 02:55:32;;;;;;;0.00;0.00;;;;;;;;;;4181855;28;20401;-33
2022/04/16 02:57:33;;;;;;;0.10;0.10;;;;;;;;;;4181896;28;20381;-31
2022/04/16 02:59:35;;;;;;;0.20;0.15;;;;;;;;;;4181582;28;20057;-32
2022/04/16 03:01:36;;;;;;;0.45;0.20;;;;;;;;;;4181786;28;20115;-32
2022/04/16 03:03:37;;;;;;;0.10;0.10;;;;;;;;;;4181572;28;20061;-34
2022/04/16 03:05:39;;;;;;;0.52;0.10;;;;;;;;;;4181783;28;20053;-33
2022/04/16 03:07:41;;;;;;;0.40;0.13;;;;;;;;;;4181676;28;20558;-34
2022/04/16 03:09:42;;;;;;;0.10;0.10;;;;;;;;;;4181326;28;20377;-33
2022/04/16 03:11:43;;;;;;;0.55;0.10;;;;;;;;;;4181737;28;20565;-31
2022/04/16 03:13:45;;;;;;;0.20;0.10;;;;;;;;;;4181459;28;20107;-32
2022/04/16 03:18:07;;;;;;;0.40;0.10;;;;;;;;;;4181711;28;20103;-34
2022/04/16 03:20:09;;;;;;;0.10;0.10;;;;;;;;;;4181433;28;20559;-35
2022/04/16 03:22:10;;;;;;;0.10;0.10;;;;;;;;;;4181529;28;20103;-33
2022/04/16 03:24:12;;;;;;;0.13;0.13;;;;;;;;;;4180978;28;20052;-31
2022/04/16 03:26:13;;;;;;;0.10;0.10;;;;;;;;;;4181400;28;20057;-35
2022/04/16 03:28:14;;;;;;;0.20;0.10;;;;;;;;;;4181238;28;20434;-33
2022/04/16 03:30:15;;;;;;;0.10;0.10;;;;;;;;;;4181459;28;20064;-31
2022/04/16 03:32:17;;;;;;;0.30;0.17;;;;;;;;;;4181291;28;20053;-33
2022/04/16 03:34:18;;;;;;;0.10;0.10;;;;;;;;;;4181150;28;20472;-34
2022/04/16 03:36:19;;;;;;;0.03;0.03;;;;;;;;;;4181309;28;20057;-32
2022/04/16 03:38:20;;;;;;;0.90;0.20;;;;;;;;;;4180895;28;20079;-35
2022/04/16 03:40:26;;;;;;;0.55;0.20;;;;;;;;;;4181256;28;20527;-32
2022/04/16 03:42:27;;;;;;;0.20;0.20;;;;;;;;;;4181402;28;20087;-31
2022/04/16 03:44:29;;;;;;;0.17;0.17;;;;;;;;;;4181123;28;20052;-32
2022/04/16 03:46:30;;;;;;;0.10;0.10;;;;;;;;;;4180936;28;20481;-35
2022/04/16 03:48:32;;;;;;;0.20;0.10;;;;;;;;;;4180980;28;20048;-32
2022/04/16 03:50:34;;;;;;;0.20;0.10;;;;;;;;;;4181223;28;20053;-33
2022/04/16 03:52:42;;;;;;;0.15;0.10;;;;;;;;;;4180980;28;20463;-31
2022/04/16 04:01:45;;;;;;;0.08;0.05;;;;;;;;;;4180784;28;20060;-34
2022/04/16 04:03:46;;;;;;;0.10;0.05;;;;;;;;;;4180739;28;20455;-34
2022/04/16 04:05:49;;;;;;;0.20;0.10;;;;;;;;;;4179464;28;20106;-35
2022/04/16 04:07:50;;;;;;;0.43;0.10;;;;;;;;;;4180635;28;20083;-34
2022/04/16 04:09:52;;;;;;;0.10;0.10;;;;;;;;;;4180227;28;20386;-34
2022/04/16 04:11:53;;;;;;;0.13;0.10;;;;;;;;;;4180716;28;20485;-34
2022/04/16 04:13:54;;;;;;;0.43;0.15;;;;;;;;;;4178455;28;20059;-32
2022/04/16 04:15:55;;;;;;;0.20;0.10;;;;;;;;;;4180657;28;20102;-35
2022/04/16 04:17:58;;;;;;;0.52;0.13;;;;;;;;;;4177091;28;20116;-35
2022/04/16 04:20:00;;;;;;;0.10;0.10;;;;;;;;;;4178342;28;20402;-33
2022/04/16 04:22:06;;;;;;;0.30;0.10;;;;;;;;;;4178576;28;20488;-36
2022/04/16 04:24:07;;;;;;;0.32;0.20;;;;;;;;;;4178368;28;20061;-31
2022/04/16 04:26:09;;;;;;;0.35;0.10;;;;;;;;;;4178697;28;20088;-35
2022/04/16 04:28:11;;;;;;;0.10;0.05;;;;;;;;;;4178142;28;20453;-32
2022/04/16 04:30:13;;;;;;;0.17;0.10;;;;;;;;;;4177922;28;20064;-34
2022/04/16 04:32:14;;;;;;;0.15;0.15;;;;;;;;;;4178396;28;20098;-35
2022/04/16 04:34:15;;;;;;;0.40;0.20;;;;;;;;;;4178098;28;20053;-34
2022/04/16 04:36:16;;;;;;;0.20;0.10;;;;;;;;;;4178100;28;20463;-35
2022/04/16 04:38:18;;;;;;;0.10;0.10;;;;;;;;;;4177824;28;20114;-33
2022/04/16 04:40:20;;;;;;;0.60;0.20;;;;;;;;;;4178114;28;20079;-32
2022/04/16 04:42:25;;;;;;;0.50;0.20;;;;;;;;;;4177774;28;20060;-33
2022/04/16 04:44:26;;;;;;;0.05;0.05;;;;;;;;;;4177973;28;20057;-35
2022/04/16 04:46:28;;;;;;;0.35;0.15;;;;;;;;;;4176969;28;20068;-33
2022/04/16 04:48:29;;;;;;;0.10;0.10;;;;;;;;;;4178103;28;20059;-33
2022/04/16 04:50:30;;;;;;;0.20;0.10;;;;;;;;;;4178044;28;20057;-33
2022/04/16 04:52:32;;;;;;;0.55;0.10;;;;;;;;;;4178016;28;20823;-33
2022/04/16 04:54:33;;;;;;;0.20;0.10;;;;;;;;;;4175650;28;20126;-33
2022/04/16 04:56:35;;;;;;;0.05;0.00;;;;;;;;;;4177950;28;20057;-34
2022/04/16 04:58:36;;;;;;;0.43;0.10;;;;;;;;;;4177621;28;20110;-34
2022/04/16 05:00:37;;;;;;;0.85;0.20;;;;;;;;;;4177709;28;20167;-31
2022/04/16 05:02:45;;;;;;;0.60;0.20;;;;;;;;;;4177776;28;20057;-33
2022/04/16 05:04:46;;;;;;;0.73;0.20;;;;;;;;;;4176140;28;20103;-33
2022/04/16 05:06:47;;;;;;;0.10;0.10;;;;;;;;;;4169736;28;20099;-35
2022/04/16 05:08:48;;;;;;;0.10;0.08;;;;;;;;;;4179556;28;20045;-32
2022/04/16 05:10:50;;;;;;;0.10;0.10;;;;;;;;;;4179825;28;20049;-32
2022/04/16 05:12:56;;;;;;;0.30;0.10;;;;;;;;;;4179732;28;20057;-32
2022/04/16 05:14:57;;;;;;;0.10;0.10;;;;;;;;;;4178498;28;20053;-33
2022/04/16 05:16:58;;;;;;;0.32;0.10;;;;;;;;;;4180049;28;20052;-33
2022/04/16 05:18:59;;;;;;;0.10;0.10;;;;;;;;;;4179552;28;20053;-32
2022/04/16 05:21:00;;;;;;;0.10;0.10;;;;;;;;;;4179649;28;20107;-34
2022/04/16 05:23:01;;;;;;;0.20;0.03;;;;;;;;;;4179595;28;20496;-34
2022/04/16 05:25:03;;;;;;;0.50;0.10;;;;;;;;;;4179074;28;20053;-36
2022/04/16 05:27:04;;;;;;;0.10;0.10;;;;;;;;;;4178282;28;20053;-31
2022/04/16 05:29:06;;;;;;;0.25;0.10;;;;;;;;;;4179324;28;20052;-34
2022/04/16 05:31:08;;;;;;;0.00;0.00;;;;;;;;;;4179806;28;20057;-32
2022/04/16 05:34:18;;;;;;;0.10;0.10;;;;;;;;;;4179539;28;20064;-34
2022/04/16 05:35:30;;;;;;;0.10;0.10;;;;;;;;;;4179378;28;20064;-34
2022/04/16 05:37:31;;;;;;;0.40;0.10;;;;;;;;;;4179519;28;20390;-36
2022/04/16 05:39:32;;;;;;;1.45;0.10;;;;;;;;;;4178999;28;20060;-34
2022/04/16 05:41:33;;;;;;;0.20;0.10;;;;;;;;;;4179293;28;20550;-34
2022/04/16 05:43:35;;;;;;;0.20;0.13;;;;;;;;;;4179430;28;20057;-34
2022/04/16 05:45:36;;;;;;;0.00;0.00;;;;;;;;;;4178242;28;20061;-36
2022/04/16 05:47:37;;;;;;;0.30;0.10;;;;;;;;;;4178316;28;20057;-34
2022/04/16 05:49:39;;;;;;;0.10;0.10;;;;;;;;;;4177855;28;20106;-34
2022/04/16 05:51:40;;;;;;;0.10;0.10;;;;;;;;;;4178168;28;20451;-35
2022/04/16 05:53:41;;;;;;;0.10;0.00;;;;;;;;;;4179176;28;20060;-37
2022/04/16 05:55:47;;;;;;;0.20;0.17;;;;;;;;;;4179353;28;20061;-33
2022/04/16 05:57:48;;;;;;;0.25;0.10;;;;;;;;;;4179387;28;20083;-31
2022/04/16 05:59:50;;;;;;;0.20;0.10;;;;;;;;;;4179159;28;20064;-36
2022/04/16 06:01:51;;;;;;;0.10;0.10;;;;;;;;;;4179313;28;20426;-34
2022/04/16 06:03:52;;;;;;;0.15;0.10;;;;;;;;;;4179363;28;20107;-34
2022/04/16 06:05:54;;;;;;;0.17;0.10;;;;;;;;;;4179353;28;20095;-32
2022/04/16 06:07:55;;;;;;;0.28;0.15;;;;;;;;;;4179258;28;20053;-35
2022/04/16 06:09:56;;;;;;;0.08;0.08;;;;;;;;;;4178892;28;20057;-33
2022/04/16 06:12:02;;;;;;;0.10;0.10;;;;;;;;;;4177923;28;20543;-34
2022/04/16 06:14:03;;;;;;;0.20;0.10;;;;;;;;;;4179118;28;20496;-32
2022/04/16 06:16:06;;;;;;;0.00;0.00;;;;;;;;;;4179433;28;20106;-32
2022/04/16 06:18:08;;;;;;;0.85;0.10;;;;;;;;;;4179120;28;20107;-36
2022/04/16 06:20:10;;;;;;;0.00;0.00;;;;;;;;;;4179392;28;20053;-37
2022/04/16 06:22:12;;;;;;;0.10;0.10;;;;;;;;;;4178958;28;20053;-36
2022/04/16 06:24:13;;;;;;;0.30;0.10;;;;;;;;;;4178828;28;20052;-32
2022/04/16 06:26:14;;;;;;;0.10;0.10;;;;;;;;;;4179245;28;20512;-32
2022/04/16 06:28:16;;;;;;;0.00;0.00;;;;;;;;;;4178834;28;20613;-33
2022/04/16 06:30:17;;;;;;;0.08;0.00;;;;;;;;;;4179168;28;20056;-36
2022/04/16 06:32:18;;;;;;;0.08;0.08;;;;;;;;;;4179081;28;20061;-33
2022/04/16 06:34:23;;;;;;;0.13;0.10;;;;;;;;;;4178892;28;20107;-34
2022/04/16 06:36:25;;;;;;;0.20;0.10;;;;;;;;;;4180675;28;20071;-34
2022/04/16 06:38:29;;;;;;;0.10;0.10;;;;;;;;;;4181816;28;20053;-33
2022/04/16 06:40:30;;;;;;;0.63;0.10;;;;;;;;;;4182035;28;20106;-33
2022/04/16 06:42:32;;;;;;;1.00;0.20;;;;;;;;;;4182278;28;20536;-35
2022/04/16 06:44:33;;;;;;;0.13;0.10;;;;;;;;;;4181882;28;20103;-36
2022/04/16 06:46:34;;;;;;;0.30;0.15;;;;;;;;;;4182095;28;20052;-34
2022/04/16 06:48:36;;;;;;;0.95;0.10;;;;;;;;;;4182101;28;20045;-34
2022/04/16 06:50:37;;;;;;;0.70;0.10;;;;;;;;;;4181941;28;20104;-33
2022/04/16 06:52:38;;;;;;;0.00;0.00;;;;;;;;;;4181971;28;20053;-34
2022/04/16 06:54:39;;;;;;;0.10;0.10;;;;;;;;;;4181329;28;20492;-35
2022/04/16 06:56:40;;;;;;;0.20;0.10;;;;;;;;;;4181852;28;20144;-32
2022/04/16 06:58:42;;;;;;;0.10;0.10;;;;;;;;;;4181595;28;20056;-34
2022/04/16 07:00:43;;;;;;;0.20;0.10;;;;;;;;;;4181713;28;20385;-33
2022/04/16 07:02:45;;;;;;;0.10;0.10;;;;;;;;;;4181660;28;20075;-32
2022/04/16 07:04:46;;;;;;;0.10;0.10;;;;;;;;;;4181598;28;20122;-35
2022/04/16 07:06:47;;;;;;;0.10;0.10;;;;;;;;;;4181951;28;20265;-30
2022/04/16 07:08:48;;;;;;;0.10;0.10;;;;;;;;;;4181028;28;20095;-34
2022/04/16 07:10:49;;;;;;;0.70;0.15;;;;;;;;;;4181727;28;20052;-34
2022/04/16 07:12:50;;;;;;;0.17;0.10;;;;;;;;;;4181627;28;20057;-33
2022/04/16 07:14:51;;;;;;;0.10;0.10;;;;;;;;;;4181699;28;20061;-34
2022/04/16 07:16:52;;;;;;;0.52;0.10;;;;;;;;;;4180304;28;20394;-38
2022/04/16 07:18:54;;;;;;;0.40;0.10;;;;;;;;;;4181648;28;20053;-35
2022/04/16 07:20:55;;;;;;;0.20;0.17;;;;;;;;;;4181576;28;20053;-36
2022/04/16 07:22:56;;;;;;;0.20;0.10;;;;;;;;;;4181581;28;20056;-35
2022/04/16 07:24:57;;;;;;;0.20;0.20;;;;;;;;;;4180983;28;20102;-34
2022/04/16 07:26:58;;;;;;;0.15;0.10;;;;;;;;;;4181670;28;20049;-36
2022/04/16 07:28:59;;;;;;;0.10;0.00;;;;;;;;;;4181170;28;20153;-30
2022/04/16 07:31:00;;;;;;;0.10;0.10;;;;;;;;;;4181553;28;20052;-31
2022/04/16 07:33:01;;;;;;;0.35;0.20;;;;;;;;;;4179931;28;20053;-33
2022/04/16 07:35:03;;;;;;;0.20;0.10;;;;;;;;;;4181348;28;20057;-30
2022/04/16 07:37:04;;;;;;;0.28;0.17;;;;;;;;;;4181338;28;20069;-32
2022/04/16 07:39:05;;;;;;;0.10;0.00;;;;;;;;;;4180740;28;20055;-31
2022/04/16 07:41:06;;;;;;;0.20;0.10;;;;;;;;;;4181040;28;20060;-30
2022/04/16 07:43:07;;;;;;;0.13;0.10;;;;;;;;;;4181130;28;20103;-32
2022/04/16 07:45:09;;;;;;;0.10;0.10;;;;;;;;;;4181248;28;20171;-30
2022/04/16 07:47:10;;;;;;;0.77;0.10;;;;;;;;;;4180649;28;20048;-33
2022/04/16 07:49:11;;;;;;;0.10;0.10;;;;;;;;;;4180306;28;20106;-33
2022/04/16 07:51:12;;;;;;;0.73;0.10;;;;;;;;;;4181051;28;20110;-34
2022/04/16 07:53:14;;;;;;;0.00;0.00;;;;;;;;;;4180425;28;20164;-32
2022/04/16 07:55:15;;;;;;;0.10;0.10;;;;;;;;;;4180785;28;20060;-30
2022/04/16 07:57:16;;;;;;;0.47;0.10;;;;;;;;;;4180986;28;20535;-30
2022/04/16 07:59:18;;;;;;;0.05;0.00;;;;;;;;;;4180564;28;20045;-30
2022/04/16 08:01:19;;;;;;;0.50;0.20;;;;;;;;;;4180870;28;20098;-31
2022/04/16 08:03:20;;;;;;;0.35;0.20;;;;;;;;;;4181010;28;20049;-33
2022/04/16 08:05:21;;;;;;;0.30;0.20;;;;;;;;;;4179454;28;20057;-35
2022/04/16 08:07:23;;;;;;;1.27;0.10;;;;;;;;;;4180674;28;20116;-32
2022/04/16 08:09:24;;;;;;;0.47;0.00;;;;;;;;;;4180228;28;20049;-33
2022/04/16 08:11:25;;;;;;;0.35;0.10;;;;;;;;;;4180719;28;20481;-34
2022/04/16 08:13:28;;;;;;;0.10;0.10;;;;;;;;;;4180680;28;20063;-34
2022/04/16 08:15:29;;;;;;;0.20;0.00;;;;;;;;;;4180652;28;20099;-34
2022/04/16 08:17:30;;;;;;;0.10;0.10;;;;;;;;;;4180881;28;20056;-32
2022/04/16 08:19:31;;;;;;;0.40;0.20;;;;;;;;;;4180464;28;20550;-32
2022/04/16 08:21:34;;;;;;;0.20;0.10;;;;;;;;;;4180743;28;20063;-34
2022/04/16 08:23:43;;;;;;;0.20;0.13;;;;;;;;;;4180109;28;20072;-33
2022/04/16 08:25:44;;;;;;;0.20;0.10;;;;;;;;;;4180677;28;20060;-31
2022/04/16 08:27:46;;;;;;;0.10;0.10;;;;;;;;;;4180593;28;20103;-33
2022/04/16 08:29:47;;;;;;;0.10;0.00;;;;;;;;;;4180200;28;20053;-31
2022/04/16 08:31:49;;;;;;;0.15;0.10;;;;;;;;;;4180280;28;20075;-31
2022/04/16 08:33:50;;;;;;;0.10;0.10;;;;;;;;;;4180486;28;20093;-31
2022/04/16 08:35:52;;;;;;;0.30;0.10;;;;;;;;;;4180124;28;20783;-32
2022/04/16 08:37:53;;;;;;;0.20;0.20;;;;;;;;;;4180236;28;20053;-31
2022/04/16 08:39:54;;;;;;;0.10;0.10;;;;;;;;;;4179759;28;20102;-32
2022/04/16 08:41:56;;;;;;;0.25;0.10;;;;;;;;;;4180152;28;20094;-32
2022/04/16 08:43:58;;;;;;;1.00;0.20;;;;;;;;;;4179067;28;20138;-34
2022/04/16 08:46:00;;;;;;;0.25;0.20;;;;;;;;;;4180385;28;20443;-31
2022/04/16 08:48:01;;;;;;;1.38;0.17;;;;;;;;;;4180039;28;20489;-34
2022/04/16 08:50:05;;;;;;;0.20;0.10;;;;;;;;;;4179730;28;20465;-34
2022/04/16 08:52:08;;;;;;;0.57;0.20;;;;;;;;;;4180133;28;20106;-32
2022/04/16 08:54:09;;;;;;;0.52;0.20;;;;;;;;;;4179435;28;20416;-32
2022/04/16 08:56:11;;;;;;;1.35;0.20;;;;;;;;;;4180035;28;20053;-30
2022/04/16 08:58:12;;;;;;;0.13;0.10;;;;;;;;;;4179926;28;20057;-32
2022/04/16 09:00:14;;;;;;;0.32;0.10;;;;;;;;;;4179474;28;20111;-32
2022/04/16 09:02:15;;;;;;;0.20;0.10;;;;;;;;;;4179929;28;20049;-30
2022/04/16 09:04:21;;;;;;;0.20;0.10;;;;;;;;;;4179483;28;20103;-32
2022/04/16 09:06:23;;;;;;;1.08;0.10;;;;;;;;;;4179891;28;20057;-31
2022/04/16 09:08:31;;;;;;;0.57;0.20;;;;;;;;;;4179235;28;20500;-30
2022/04/16 09:10:33;;;;;;;0.20;0.20;;;;;;;;;;4179722;28;20103;-33
2022/04/16 09:12:38;;;;;;;0.30;0.10;;;;;;;;;;4179820;28;20110;-33
2022/04/16 09:14:44;;;;;;;0.65;0.13;;;;;;;;;;4179635;28;20484;-35
2022/04/16 09:16:45;;;;;;;0.22;0.20;;;;;;;;;;4179935;28;20094;-31
2022/04/16 09:18:51;;;;;;;0.68;0.20;;;;;;;;;;4179792;28;20053;-32
2022/04/16 09:20:53;;;;;;;0.10;0.10;;;;;;;;;;4179801;28;20052;-31
2022/04/16 09:22:54;;;;;;;0.80;0.10;;;;;;;;;;4179502;28;20053;-31
2022/04/16 09:24:55;;;;;;;0.20;0.10;;;;;;;;;;4177887;28;20087;-32
2022/04/16 09:26:56;;;;;;;0.10;0.10;;;;;;;;;;4174465;28;20060;-32
2022/04/16 09:29:10;;;;;;;0.68;0.15;;;;;;;;;;4159576;28;20630;-32
2022/04/16 09:31:11;;;;;;;0.32;0.20;;;;;;;;;;4161065;28;20107;-34
2022/04/16 09:33:12;;;;;;;0.50;0.10;;;;;;;;;;4160772;28;20459;-33
2022/04/16 09:35:30;;;;;;;0.88;0.20;;;;;;;;;;4161186;28;20116;-30
2022/04/16 09:37:33;;;;;;;0.50;0.15;;;;;;;;;;4160968;28;20057;-33
2022/04/16 09:39:34;;;;;;;0.20;0.20;;;;;;;;;;4160656;28;20493;-34
2022/04/16 09:41:40;;;;;;;0.52;0.15;;;;;;;;;;4161054;28;20061;-34
2022/04/16 09:43:41;;;;;;;0.43;0.10;;;;;;;;;;4161002;28;20103;-34
2022/04/16 09:45:42;;;;;;;0.20;0.10;;;;;;;;;;4161066;28;20520;-32
2022/04/16 09:47:49;;;;;;;0.47;0.10;;;;;;;;;;4160797;28;20100;-35
2022/04/16 09:49:52;;;;;;;0.45;0.30;;;;;;;;;;4175454;28;20056;-33
2022/04/16 09:51:53;;;;;;;1.00;0.10;;;;;;;;;;4161166;28;20061;-34
2022/04/16 09:53:56;;;;;;;0.03;0.03;;;;;;;;;;4142582;28;20057;-33
2022/04/16 09:56:00;;;;;;;0.43;0.10;;;;;;;;;;4160810;28;20502;-34
2022/04/16 09:58:03;;;;;;;0.30;0.10;;;;;;;;;;4159408;28;20057;-30
2022/04/16 10:00:05;;;;;;;0.25;0.22;;;;;;;;;;4156356;28;20045;-30
2022/04/16 10:02:15;;;;;;;0.13;0.10;;;;;;;;;;4176945;28;20106;-33
2022/04/16 10:04:17;;;;;;;0.32;0.10;;;;;;;;;;4177120;28;20556;-30
2022/04/16 10:06:19;;;;;;;0.35;0.20;;;;;;;;;;4177381;28;20666;-33
2022/04/16 10:08:22;;;;;;;0.25;0.20;;;;;;;;;;4177027;28;20154;-31
2022/04/16 10:10:30;;;;;;;0.40;0.10;;;;;;;;;;4177087;28;20507;-31
2022/04/16 10:14:58;;;;;;;0.20;0.10;;;;;;;;;;4168192;28;20071;-33
2022/04/16 10:17:07;;;;;;;0.70;0.20;;;;;;;;;;4165899;28;20501;-31
2022/04/16 10:19:15;;;;;;;0.80;0.37;;;;;;;;;;4166074;28;20054;-29
2022/04/16 10:21:17;;;;;;;0.20;0.10;;;;;;;;;;4166016;28;20501;-36
2022/04/16 10:23:32;;;;;;;0.60;0.10;;;;;;;;;;4165499;28;20107;-35
2022/04/16 10:25:35;;;;;;;0.57;0.10;;;;;;;;;;4165895;28;20107;-32
2022/04/16 10:27:40;;;;;;;0.28;0.20;;;;;;;;;;4165973;28;20061;-36
2022/04/16 10:29:46;;;;;;;0.20;0.10;;;;;;;;;;4165596;28;20057;-34
2022/04/16 10:31:49;;;;;;;0.52;0.10;;;;;;;;;;4167265;28;20104;-34
2022/04/16 10:33:59;;;;;;;0.25;0.20;;;;;;;;;;4182018;28;20049;-33
2022/04/16 10:36:03;;;;;;;0.25;0.20;;;;;;;;;;4182211;28;20053;-32
2022/04/16 10:38:04;;;;;;;0.47;0.10;;;;;;;;;;4180844;28;20052;-34
2022/04/16 10:40:23;;;;;;;0.45;0.10;;;;;;;;;;4181650;28;20099;-33
2022/04/16 10:42:30;;;;;;;0.95;0.10;;;;;;;;;;4180774;28;20053;-33
2022/04/16 10:44:43;;;;;;;0.57;0.20;;;;;;;;;;4181899;28;20048;-32
2022/04/16 10:46:46;;;;;;;0.30;0.10;;;;;;;;;;4181899;28;20057;-32
2022/04/16 10:48:48;;;;;;;0.20;0.10;;;;;;;;;;4181715;28;20488;-33
2022/04/16 10:50:52;;;;;;;0.28;0.20;;;;;;;;;;4181940;28;20455;-33
2022/04/16 10:53:03;;;;;;;0.25;0.10;;;;;;;;;;4180875;28;20048;-32
2022/04/16 10:55:05;;;;;;;0.50;0.20;;;;;;;;;;4181709;28;20053;-30
2022/04/16 10:57:08;;;;;;;0.40;0.10;;;;;;;;;;4181862;28;20114;-33
2022/04/16 10:59:11;;;;;;;0.17;0.17;;;;;;;;;;4181664;28;20497;-33
2022/04/16 11:01:13;;;;;;;0.40;0.20;;;;;;;;;;4181922;28;20131;-33
2022/04/16 11:03:42;;;;;;;0.10;0.10;;;;;;;;;;4181986;28;20048;-31
2022/04/16 11:05:43;;;;;;;0.10;0.10;;;;;;;;;;4181822;28;20053;-31
2022/04/16 11:07:46;;;;;;;0.45;0.17;;;;;;;;;;4181648;28;20084;-30
2022/04/16 11:09:50;;;;;;;0.10;0.00;;;;;;;;;;4181112;28;20053;-32
2022/04/16 11:11:51;;;;;;;0.55;0.10;;;;;;;;;;4164208;28;20053;-30
2022/04/16 11:13:52;;;;;;;0.15;0.03;;;;;;;;;;4181367;28;20057;-34
2022/04/16 11:15:55;;;;;;;0.40;0.10;;;;;;;;;;4180151;28;20057;-34
2022/04/16 11:18:00;;;;;;;0.32;0.20;;;;;;;;;;4181620;28;20057;-35
2022/04/16 11:20:04;;;;;;;0.20;0.20;;;;;;;;;;4181696;28;20049;-35
2022/04/16 11:22:05;;;;;;;0.30;0.25;;;;;;;;;;4181548;28;20344;-33
2022/04/16 11:24:06;;;;;;;0.15;0.13;;;;;;;;;;4180941;28;20065;-31
2022/04/16 11:36:04;;;;;;;0.88;0.13;;;;;;;;;;4181507;28;20064;-34
2022/04/16 11:38:05;;;;;;;0.57;0.20;;;;;;;;;;4181489;28;20053;-34
2022/04/16 11:40:08;;;;;;;0.10;0.10;;;;;;;;;;4180801;28;20053;-33
2022/04/16 11:42:10;;;;;;;0.57;0.20;;;;;;;;;;4181161;28;20048;-36
2022/04/16 11:44:11;;;;;;;0.13;0.10;;;;;;;;;;4181136;28;20130;-32
2022/04/16 11:46:14;;;;;;;0.20;0.10;;;;;;;;;;4179813;28;20154;-34
2022/04/16 11:48:16;;;;;;;0.35;0.20;;;;;;;;;;4180994;28;20053;-34
2022/04/16 11:50:18;;;;;;;0.15;0.10;;;;;;;;;;4179653;28;20562;-32
2022/04/16 11:52:27;;;;;;;0.10;0.10;;;;;;;;;;4179755;28;20052;-34
2022/04/16 11:54:29;;;;;;;0.15;0.10;;;;;;;;;;4179100;28;20082;-33
2022/04/16 11:56:30;;;;;;;0.60;0.10;;;;;;;;;;4181197;28;20051;-32
2022/04/16 11:58:32;;;;;;;0.20;0.10;;;;;;;;;;4180721;28;20057;-32
2022/04/16 12:00:33;;;;;;;0.98;0.20;;;;;;;;;;4180803;28;20079;-31
2022/04/16 12:02:36;;;;;;;0.82;0.13;;;;;;;;;;4180842;28;20052;-35
2022/04/16 12:04:39;;;;;;;1.13;0.13;;;;;;;;;;4180842;28;20057;-32
2022/04/16 12:06:41;;;;;;;0.28;0.10;;;;;;;;;;4180733;28;20064;-35
2022/04/16 12:08:43;;;;;;;0.17;0.08;;;;;;;;;;4180113;28;20052;-32
2022/04/16 12:10:46;;;;;;;0.15;0.00;;;;;;;;;;4180701;28;20057;-33
2022/04/16 12:12:48;;;;;;;0.10;0.10;;;;;;;;;;4179659;28;20163;-31
2022/04/16 12:14:52;;;;;;;0.15;0.10;;;;;;;;;;4180509;28;20061;-33
2022/04/16 12:17:00;;;;;;;0.10;0.10;;;;;;;;;;4180983;28;20053;-33
2022/04/16 12:19:01;;;;;;;0.45;0.13;;;;;;;;;;4179188;28;20044;-34
2022/04/16 12:21:17;;;;;;;0.43;0.43;;;;;;;;;;4180581;28;20049;-33
2022/04/16 12:23:22;;;;;;;0.10;0.10;;;;;;;;;;4180095;28;20087;-35
2022/04/16 12:25:24;;;;;;;0.68;0.30;;;;;;;;;;4180548;28;20053;-32
2022/04/16 12:27:27;;;;;;;0.73;0.10;;;;;;;;;;4180505;28;20551;-31
2022/04/16 12:29:30;;;;;;;0.13;0.10;;;;;;;;;;4180141;28;20496;-33
2022/04/16 12:31:31;;;;;;;0.52;0.30;;;;;;;;;;4180475;28;20048;-31
2022/04/16 12:33:32;;;;;;;0.63;0.20;;;;;;;;;;4179729;28;20478;-36
2022/04/16 12:35:35;;;;;;;0.10;0.10;;;;;;;;;;4180441;28;20098;-32
2022/04/16 12:37:36;;;;;;;0.68;0.20;;;;;;;;;;4180472;28;20159;-31